Skip to main content

NOAA/GLERL Met Station at Michigan City, IN

Previous 3 Hours (2 minute increments)
See also Previous 5 Days (top of hour)
Jump down to Data
Switch to [English][Metric]
Zoom: Click and drag, Pan: shift-click and drag, Unzoom: double-click, Unzoom All





See also 1-day windrose plot


NOAA/GLERL Met Station at Michigan City, IN

Previous 3 Hours (2 minute increments)
See also Previous 5 Days (top of hour only)
Jump up to Graphs
Switch to [English][Metric]
                  Wind  Wind  Wind   Air   Dew   Rel     Sta   PAR
                   Spd   Gst   Dir  Temp    Pt   Hum    Pres uE/m2/
YYYY-MM-DD   CDT   kts   kts   deg     F     F     %   in Hg   sec
2018-09-25 04:52   5.8   7.2   160  68.9  67.7  96.0    0.00     0
2018-09-25 04:50   5.6   7.4   168  68.9  67.7  96.0    0.00     0
2018-09-25 04:48   5.4   8.0   176  68.9  67.7  95.8    0.00     0
2018-09-25 04:46   7.2   9.3   179  68.9  67.7  95.9    0.00     0
2018-09-25 04:44   8.4  10.9   178  68.9  67.7  95.9    0.00     0
2018-09-25 04:42   7.2   9.1   176  68.9  67.7  96.0    0.00     0
2018-09-25 04:40   7.8  10.3   177  68.9  67.8  96.1    0.00     0
2018-09-25 04:38   7.6  11.1   184  68.9  67.8  96.2    0.00     0
2018-09-25 04:36   6.0   7.4   175  68.7  67.6  96.1    0.00     0
2018-09-25 04:34   6.0   7.0   173  68.7  67.6  96.3    0.00     0
2018-09-25 04:32   5.8   7.0   177  68.5  67.5  96.4    0.00     0
2018-09-25 04:30   3.9   4.9   183  68.4  67.3  96.3    0.00     0
2018-09-25 04:28   4.9   6.2   186  68.4  67.3  96.4    0.00     0
2018-09-25 04:26   4.9   5.4   190  68.4  67.3  96.4    0.00     0
2018-09-25 04:24   5.1   5.6   194  68.4  67.3  96.4    0.00     0
2018-09-25 04:22   4.7   5.1   195  68.4  67.3  96.4    0.00     0
2018-09-25 04:20   4.7   5.4   205  68.4  67.3  96.3    0.00     0
2018-09-25 04:18   5.2   6.6   208  68.4  67.3  96.2    0.00     0
2018-09-25 04:16   6.0   7.0   207  68.4  67.2  96.1    0.00     0
2018-09-25 04:14   6.2   6.8   200  68.4  67.2  96.1    0.00     0
2018-09-25 04:12   6.6   7.2   197  68.4  67.2  96.1    0.00     0
2018-09-25 04:10   6.4   6.8   197  68.4  67.2  96.0    0.00     0
2018-09-25 04:08   6.6   8.2   196  68.5  67.3  95.9    0.00     0
2018-09-25 04:06   7.4   8.6   194  68.5  67.3  95.7    0.00     0
2018-09-25 04:04   7.8   9.7   185  68.5  67.3  95.6    0.00     0
2018-09-25 04:02   9.7  12.4   182  68.5  67.2  95.4    0.00     0
2018-09-25 04:00   8.7  11.9   181  68.7  67.3  95.2    0.00     0
2018-09-25 03:58   9.5  12.2   184  68.7  67.3  95.1    0.00     0
2018-09-25 03:56   8.4  11.7   178  68.7  67.2  94.9    0.00     0
2018-09-25 03:54   8.9  11.5   176  68.7  67.2  94.9    0.00     0
2018-09-25 03:52   9.3  11.9   176  68.7  67.2  94.7    0.00     0
2018-09-25 03:50  10.3  12.8   178  68.7  67.1  94.5    0.00     0
2018-09-25 03:48  10.5  11.7   179  68.7  67.1  94.4    0.00     0
2018-09-25 03:46   8.9  10.7   181  68.7  67.0  94.1    0.00     0
2018-09-25 03:44  10.1  11.1   178  68.7  67.0  94.0    0.00     0
2018-09-25 03:42   9.7  11.3   179  68.7  66.9  93.9    0.00     0
2018-09-25 03:40  10.1  12.1   176  68.9  67.0  93.7    0.00     0
2018-09-25 03:38   9.1  13.0   181  68.7  66.9  93.9    0.00     0
2018-09-25 03:36   7.2   8.6   169  68.7  67.0  94.1    0.00     0
2018-09-25 03:34   7.2   9.7   163  68.7  67.0  94.2    0.00     0
2018-09-25 03:32   8.0   9.9   169  68.7  67.0  94.1    0.00     0
2018-09-25 03:30   9.3  11.1   174  68.7  67.0  94.0    0.00     0
2018-09-25 03:28   9.7  11.9   176  68.7  67.0  94.0    0.00     0
2018-09-25 03:26   9.3  11.7   178  68.7  67.0  94.1    0.00     0
2018-09-25 03:24  10.1  13.8   183  68.7  67.0  94.2    0.00     0
2018-09-25 03:22   8.4   9.7   181  68.7  67.0  94.1    0.00     0
2018-09-25 03:20   9.9  12.1   181  68.7  67.0  94.1    0.00     0
2018-09-25 03:18   8.4  10.7   185  68.7  67.0  94.1    0.00     0
2018-09-25 03:16  10.1  11.9   189  68.7  67.0  94.1    0.00     0
2018-09-25 03:14   7.8  10.1   183  68.7  67.1  94.4    0.00     0
2018-09-25 03:12   8.4   9.5   180  68.7  67.2  94.7    0.00     0
2018-09-25 03:10   8.9  10.5   182  68.7  67.2  94.8    0.00     0
2018-09-25 03:08   8.4  10.1   184  68.5  67.0  94.8    0.00     0
2018-09-25 03:06   7.4   8.7   186  68.7  67.2  94.7    0.00     0
2018-09-25 03:04   8.7  10.3   177  68.7  67.2  94.7    0.00     0
2018-09-25 03:02   9.5  10.5   177  68.7  67.2  94.8    0.00     0
2018-09-25 03:00   8.6  11.1   180  68.7  67.2  94.7    0.00     0
2018-09-25 02:58   8.2  10.9   181  68.7  67.1  94.6    0.00     0
2018-09-25 02:56   8.9  10.7   182  68.7  67.1  94.5    0.00     0
2018-09-25 02:54  10.3  12.8   183  68.7  67.2  94.7    0.00     0
2018-09-25 02:52   8.2  12.2   177  68.7  67.2  94.7    0.00     0
2018-09-25 02:50   6.4   7.8   169  68.7  67.2  94.7    0.00     0
2018-09-25 02:48   7.6  10.9   167  68.7  67.2  94.7    0.00     0
2018-09-25 02:46   8.2  10.1   173  68.7  67.2  94.8    0.00     0
2018-09-25 02:44   7.0   8.7   172  68.7  67.2  94.7    0.00     0
2018-09-25 02:42   7.6   8.7   172  68.5  67.0  94.7    0.00     0
2018-09-25 02:40   6.8   9.1   169  68.5  67.0  94.6    0.00     0
2018-09-25 02:38   7.8   9.1   161  68.5  67.0  94.7    0.00     0
2018-09-25 02:36   8.7  11.3   166  68.5  67.0  94.7    0.00     0
2018-09-25 02:34   7.2   8.7   165  68.4  66.8  94.7    0.00     0
2018-09-25 02:32   8.2   9.9   167  68.5  67.0  94.7    0.00     0
2018-09-25 02:30   8.7  11.3   168  68.5  67.0  94.6    0.00     0
2018-09-25 02:28   8.9  12.4   166  68.4  66.8  94.8    0.00     0
2018-09-25 02:26   9.1  11.9   164  68.4  66.9  94.9    0.00     0
2018-09-25 02:24   7.8   9.5   158  68.2  66.7  95.0    0.00     0
2018-09-25 02:22   9.1  12.6   167  68.2  66.8  95.2    0.00     0
2018-09-25 02:20   7.0  10.1   167  68.2  66.7  95.0    0.00     0
2018-09-25 02:18   7.2   8.7   164  68.2  66.7  94.9    0.00     0
2018-09-25 02:16   8.6  10.3   163  68.2  66.7  94.9    0.00     0
2018-09-25 02:14   9.3  12.2   164  68.4  66.8  94.6    0.00     0
2018-09-25 02:12   9.7  12.4   168  68.4  66.7  94.5    0.00     0
2018-09-25 02:10   9.5  11.9   162  68.4  66.7  94.4    0.00     0
2018-09-25 02:08  10.3  14.6   161  68.4  66.8  94.6    0.00     0
2018-09-25 02:06  10.5  12.4   163  68.4  66.7  94.5    0.00     0
2018-09-25 02:04  10.5  11.9   162  68.2  66.6  94.7    0.00     0
2018-09-25 02:02  10.7  12.8   159  68.2  66.6  94.6    0.00     0
2018-09-25 02:00  11.5  13.6   166  68.4  66.7  94.5    0.00     0
2018-09-25 01:58   9.5  13.6   161  68.4  66.7  94.4    0.00     0
2018-09-25 01:56   9.3  10.7   148  68.4  66.7  94.3    0.00     0
2018-09-25 01:54   9.9  12.8   146  68.4  66.7  94.4    0.00     0
2018-09-25 01:52   9.7  11.3   143  68.4  66.7  94.3    0.00     0